sensor_id;sensor_type;location;lat;lon;timestamp;temperature;humidity
6375;DHT22;35400;45.472;-122.822;2023-06-10T00:01:16;16.40;99.90
6375;DHT22;35400;45.472;-122.822;2023-06-10T00:03:42;16.50;99.90
6375;DHT22;35400;45.472;-122.822;2023-06-10T00:06:09;16.50;99.90
6375;DHT22;35400;45.472;-122.822;2023-06-10T00:08:36;16.50;99.90
6375;DHT22;35400;45.472;-122.822;2023-06-10T00:11:03;16.50;99.90
6375;DHT22;35400;45.472;-122.822;2023-06-10T00:13:30;16.50;99.90
6375;DHT22;35400;45.472;-122.822;2023-06-10T00:15:57;16.40;99.90
6375;DHT22;35400;45.472;-122.822;2023-06-10T00:18:24;16.40;99.90
6375;DHT22;35400;45.472;-122.822;2023-06-10T00:20:53;16.40;99.90
6375;DHT22;35400;45.472;-122.822;2023-06-10T00:23:21;16.30;99.90
6375;DHT22;35400;45.472;-122.822;2023-06-10T00:25:49;16.20;99.90
6375;DHT22;35400;45.472;-122.822;2023-06-10T00:28:15;16.10;99.90
6375;DHT22;35400;45.472;-122.822;2023-06-10T00:30:42;16.10;99.90
6375;DHT22;35400;45.472;-122.822;2023-06-10T00:33:10;16.00;99.90
6375;DHT22;35400;45.472;-122.822;2023-06-10T00:35:37;16.00;99.90
6375;DHT22;35400;45.472;-122.822;2023-06-10T00:38:04;16.00;99.90
6375;DHT22;35400;45.472;-122.822;2023-06-10T00:40:30;16.00;99.90
6375;DHT22;35400;45.472;-122.822;2023-06-10T00:42:58;16.00;99.90
6375;DHT22;35400;45.472;-122.822;2023-06-10T00:45:25;16.00;99.90
6375;DHT22;35400;45.472;-122.822;2023-06-10T00:47:52;15.90;99.90
6375;DHT22;35400;45.472;-122.822;2023-06-10T00:50:19;15.90;99.90
6375;DHT22;35400;45.472;-122.822;2023-06-10T00:52:46;16.00;99.90
6375;DHT22;35400;45.472;-122.822;2023-06-10T00:55:16;16.00;99.90
6375;DHT22;35400;45.472;-122.822;2023-06-10T00:57:45;16.00;99.90
6375;DHT22;35400;45.472;-122.822;2023-06-10T01:00:15;16.00;99.90
6375;DHT22;35400;45.472;-122.822;2023-06-10T01:02:42;16.00;99.90
6375;DHT22;35400;45.472;-122.822;2023-06-10T01:05:09;16.00;99.90
6375;DHT22;35400;45.472;-122.822;2023-06-10T01:12:59;16.00;99.90
6375;DHT22;35400;45.472;-122.822;2023-06-10T01:15:33;16.00;99.90
6375;DHT22;35400;45.472;-122.822;2023-06-10T01:18:03;16.00;99.90
6375;DHT22;35400;45.472;-122.822;2023-06-10T01:20:31;16.00;99.90
6375;DHT22;35400;45.472;-122.822;2023-06-10T01:23:02;16.00;99.90
6375;DHT22;35400;45.472;-122.822;2023-06-10T01:25:30;16.00;99.90
6375;DHT22;35400;45.472;-122.822;2023-06-10T01:28:22;16.00;99.90
6375;DHT22;35400;45.472;-122.822;2023-06-10T01:33:28;16.10;99.90
6375;DHT22;35400;45.472;-122.822;2023-06-10T01:35:59;16.20;99.90
6375;DHT22;35400;45.472;-122.822;2023-06-10T01:38:32;16.20;99.90
6375;DHT22;35400;45.472;-122.822;2023-06-10T01:41:00;16.30;99.90
6375;DHT22;35400;45.472;-122.822;2023-06-10T01:43:27;16.40;99.90
6375;DHT22;35400;45.472;-122.822;2023-06-10T01:45:54;16.50;99.90
6375;DHT22;35400;45.472;-122.822;2023-06-10T01:48:20;16.50;99.90
6375;DHT22;35400;45.472;-122.822;2023-06-10T01:50:48;16.60;99.90
6375;DHT22;35400;45.472;-122.822;2023-06-10T01:53:15;16.60;99.90
6375;DHT22;35400;45.472;-122.822;2023-06-10T01:55:41;16.60;99.90
6375;DHT22;35400;45.472;-122.822;2023-06-10T01:58:08;16.60;99.90
6375;DHT22;35400;45.472;-122.822;2023-06-10T02:00:35;16.60;99.90
6375;DHT22;35400;45.472;-122.822;2023-06-10T02:03:02;16.60;99.90
6375;DHT22;35400;45.472;-122.822;2023-06-10T02:05:29;16.60;99.90
6375;DHT22;35400;45.472;-122.822;2023-06-10T02:07:55;16.60;99.90
6375;DHT22;35400;45.472;-122.822;2023-06-10T02:10:22;16.60;99.90
6375;DHT22;35400;45.472;-122.822;2023-06-10T02:12:50;16.60;99.90
6375;DHT22;35400;45.472;-122.822;2023-06-10T02:15:16;16.60;99.90
6375;DHT22;35400;45.472;-122.822;2023-06-10T02:17:45;16.60;99.90
6375;DHT22;35400;45.472;-122.822;2023-06-10T02:20:12;16.50;99.90
6375;DHT22;35400;45.472;-122.822;2023-06-10T02:22:40;16.50;99.90
6375;DHT22;35400;45.472;-122.822;2023-06-10T02:25:08;16.50;99.90
6375;DHT22;35400;45.472;-122.822;2023-06-10T02:27:35;16.50;99.90
6375;DHT22;35400;45.472;-122.822;2023-06-10T02:30:02;16.50;99.90
6375;DHT22;35400;45.472;-122.822;2023-06-10T02:32:32;16.40;99.90
6375;DHT22;35400;45.472;-122.822;2023-06-10T02:34:59;16.50;99.90
6375;DHT22;35400;45.472;-122.822;2023-06-10T02:37:27;16.40;99.90
6375;DHT22;35400;45.472;-122.822;2023-06-10T02:39:55;16.40;99.90
6375;DHT22;35400;45.472;-122.822;2023-06-10T02:42:22;16.40;99.90
6375;DHT22;35400;45.472;-122.822;2023-06-10T02:44:50;16.40;99.90
6375;DHT22;35400;45.472;-122.822;2023-06-10T02:47:27;16.40;99.90
6375;DHT22;35400;45.472;-122.822;2023-06-10T02:49:55;16.30;99.90
6375;DHT22;35400;45.472;-122.822;2023-06-10T02:52:22;16.30;99.90
6375;DHT22;35400;45.472;-122.822;2023-06-10T02:54:49;16.30;99.90
6375;DHT22;35400;45.472;-122.822;2023-06-10T02:57:16;16.20;99.90
6375;DHT22;35400;45.472;-122.822;2023-06-10T02:59:43;16.20;99.90
6375;DHT22;35400;45.472;-122.822;2023-06-10T03:02:10;16.20;99.90
6375;DHT22;35400;45.472;-122.822;2023-06-10T03:04:44;16.10;99.90
6375;DHT22;35400;45.472;-122.822;2023-06-10T03:07:15;16.10;99.90
6375;DHT22;35400;45.472;-122.822;2023-06-10T03:09:42;16.00;99.90
6375;DHT22;35400;45.472;-122.822;2023-06-10T03:12:11;16.00;99.90
6375;DHT22;35400;45.472;-122.822;2023-06-10T03:14:43;15.90;99.90
6375;DHT22;35400;45.472;-122.822;2023-06-10T03:17:10;15.90;99.90
6375;DHT22;35400;45.472;-122.822;2023-06-10T03:19:40;15.90;99.90
6375;DHT22;35400;45.472;-122.822;2023-06-10T03:22:12;15.90;99.90
6375;DHT22;35400;45.472;-122.822;2023-06-10T03:24:44;15.80;99.90
6375;DHT22;35400;45.472;-122.822;2023-06-10T03:27:13;15.80;99.90
6375;DHT22;35400;45.472;-122.822;2023-06-10T03:29:44;15.90;99.90
6375;DHT22;35400;45.472;-122.822;2023-06-10T03:32:11;15.80;99.90
6375;DHT22;35400;45.472;-122.822;2023-06-10T03:34:40;15.80;99.90
6375;DHT22;35400;45.472;-122.822;2023-06-10T03:37:08;15.70;99.90
6375;DHT22;35400;45.472;-122.822;2023-06-10T03:39:35;15.70;99.90
6375;DHT22;35400;45.472;-122.822;2023-06-10T03:42:03;15.70;99.90
6375;DHT22;35400;45.472;-122.822;2023-06-10T03:44:31;15.60;99.90
6375;DHT22;35400;45.472;-122.822;2023-06-10T03:46:58;15.60;99.90
6375;DHT22;35400;45.472;-122.822;2023-06-10T03:49:26;15.60;99.90
6375;DHT22;35400;45.472;-122.822;2023-06-10T03:51:59;15.50;99.90
6375;DHT22;35400;45.472;-122.822;2023-06-10T03:54:26;15.50;99.90
6375;DHT22;35400;45.472;-122.822;2023-06-10T03:56:53;15.50;99.90
6375;DHT22;35400;45.472;-122.822;2023-06-10T03:59:20;15.40;99.90
6375;DHT22;35400;45.472;-122.822;2023-06-10T04:01:47;15.40;99.90
6375;DHT22;35400;45.472;-122.822;2023-06-10T04:04:15;15.40;99.90
6375;DHT22;35400;45.472;-122.822;2023-06-10T04:06:46;15.30;99.90
6375;DHT22;35400;45.472;-122.822;2023-06-10T04:09:14;15.30;99.90
6375;DHT22;35400;45.472;-122.822;2023-06-10T04:11:42;15.30;99.90
6375;DHT22;35400;45.472;-122.822;2023-06-10T04:14:09;15.30;99.90
6375;DHT22;35400;45.472;-122.822;2023-06-10T04:16:36;15.20;99.90
6375;DHT22;35400;45.472;-122.822;2023-06-10T04:19:05;15.20;99.90
6375;DHT22;35400;45.472;-122.822;2023-06-10T04:21:32;15.20;99.90
6375;DHT22;35400;45.472;-122.822;2023-06-10T04:24:00;15.20;99.90
6375;DHT22;35400;45.472;-122.822;2023-06-10T04:26:27;15.10;99.90
6375;DHT22;35400;45.472;-122.822;2023-06-10T04:28:54;15.10;99.90
6375;DHT22;35400;45.472;-122.822;2023-06-10T04:31:22;15.10;99.90
6375;DHT22;35400;45.472;-122.822;2023-06-10T04:33:50;15.10;99.90
6375;DHT22;35400;45.472;-122.822;2023-06-10T04:36:17;15.00;99.90
6375;DHT22;35400;45.472;-122.822;2023-06-10T04:38:44;15.00;99.90
6375;DHT22;35400;45.472;-122.822;2023-06-10T04:41:12;15.00;99.90
6375;DHT22;35400;45.472;-122.822;2023-06-10T04:43:39;15.00;99.90
6375;DHT22;35400;45.472;-122.822;2023-06-10T04:46:06;15.00;99.90
6375;DHT22;35400;45.472;-122.822;2023-06-10T04:48:33;15.00;99.90
6375;DHT22;35400;45.472;-122.822;2023-06-10T04:51:01;14.90;99.90
6375;DHT22;35400;45.472;-122.822;2023-06-10T04:53:29;14.90;99.90
6375;DHT22;35400;45.472;-122.822;2023-06-10T04:55:56;14.90;99.90
6375;DHT22;35400;45.472;-122.822;2023-06-10T04:58:24;14.90;99.90
6375;DHT22;35400;45.472;-122.822;2023-06-10T05:00:50;14.80;99.90
6375;DHT22;35400;45.472;-122.822;2023-06-10T05:03:17;14.80;99.90
6375;DHT22;35400;45.472;-122.822;2023-06-10T05:05:44;14.80;99.90
6375;DHT22;35400;45.472;-122.822;2023-06-10T05:08:11;14.80;99.90
6375;DHT22;35400;45.472;-122.822;2023-06-10T05:10:38;14.70;99.90
6375;DHT22;35400;45.472;-122.822;2023-06-10T05:13:05;14.70;99.90
6375;DHT22;35400;45.472;-122.822;2023-06-10T05:15:32;14.70;99.90
6375;DHT22;35400;45.472;-122.822;2023-06-10T05:17:59;14.70;99.90
6375;DHT22;35400;45.472;-122.822;2023-06-10T05:20:26;14.70;99.90
6375;DHT22;35400;45.472;-122.822;2023-06-10T05:22:55;14.60;99.90
6375;DHT22;35400;45.472;-122.822;2023-06-10T05:25:21;14.60;99.90
6375;DHT22;35400;45.472;-122.822;2023-06-10T05:27:48;14.60;99.90
6375;DHT22;35400;45.472;-122.822;2023-06-10T05:30:15;14.50;99.90
6375;DHT22;35400;45.472;-122.822;2023-06-10T05:32:45;14.50;99.90
6375;DHT22;35400;45.472;-122.822;2023-06-10T05:35:11;14.50;99.90
6375;DHT22;35400;45.472;-122.822;2023-06-10T05:37:38;14.50;99.90
6375;DHT22;35400;45.472;-122.822;2023-06-10T05:40:06;14.50;99.90
6375;DHT22;35400;45.472;-122.822;2023-06-10T05:42:33;14.40;99.90
6375;DHT22;35400;45.472;-122.822;2023-06-10T05:44:59;14.50;99.90
6375;DHT22;35400;45.472;-122.822;2023-06-10T05:47:26;14.40;99.90
6375;DHT22;35400;45.472;-122.822;2023-06-10T05:49:53;14.40;99.90
6375;DHT22;35400;45.472;-122.822;2023-06-10T05:52:20;14.40;99.90
6375;DHT22;35400;45.472;-122.822;2023-06-10T05:54:47;14.30;99.90
6375;DHT22;35400;45.472;-122.822;2023-06-10T05:57:14;14.30;99.90
6375;DHT22;35400;45.472;-122.822;2023-06-10T05:59:40;14.30;99.90
6375;DHT22;35400;45.472;-122.822;2023-06-10T06:02:07;14.30;99.90
6375;DHT22;35400;45.472;-122.822;2023-06-10T06:04:34;14.30;99.90
6375;DHT22;35400;45.472;-122.822;2023-06-10T06:07:01;14.30;99.90
6375;DHT22;35400;45.472;-122.822;2023-06-10T06:09:28;14.20;99.90
6375;DHT22;35400;45.472;-122.822;2023-06-10T06:11:55;14.20;99.90
6375;DHT22;35400;45.472;-122.822;2023-06-10T06:14:22;14.20;99.90
6375;DHT22;35400;45.472;-122.822;2023-06-10T06:16:48;14.20;99.90
6375;DHT22;35400;45.472;-122.822;2023-06-10T06:19:15;14.20;99.90
6375;DHT22;35400;45.472;-122.822;2023-06-10T06:21:42;14.10;99.90
6375;DHT22;35400;45.472;-122.822;2023-06-10T06:24:09;14.10;99.90
6375;DHT22;35400;45.472;-122.822;2023-06-10T06:26:36;14.10;99.90
6375;DHT22;35400;45.472;-122.822;2023-06-10T06:29:02;14.10;99.90
6375;DHT22;35400;45.472;-122.822;2023-06-10T06:31:30;14.10;99.90
6375;DHT22;35400;45.472;-122.822;2023-06-10T06:33:57;14.10;99.90
6375;DHT22;35400;45.472;-122.822;2023-06-10T06:36:24;14.20;99.90
6375;DHT22;35400;45.472;-122.822;2023-06-10T06:38:51;14.10;99.90
6375;DHT22;35400;45.472;-122.822;2023-06-10T06:41:19;14.10;99.90
6375;DHT22;35400;45.472;-122.822;2023-06-10T06:43:48;14.10;99.90
6375;DHT22;35400;45.472;-122.822;2023-06-10T06:46:25;14.10;99.90
6375;DHT22;35400;45.472;-122.822;2023-06-10T06:48:51;14.10;99.90
6375;DHT22;35400;45.472;-122.822;2023-06-10T06:51:18;14.00;99.90
6375;DHT22;35400;45.472;-122.822;2023-06-10T06:53:45;14.00;99.90
6375;DHT22;35400;45.472;-122.822;2023-06-10T06:56:12;14.00;99.90
6375;DHT22;35400;45.472;-122.822;2023-06-10T06:58:39;14.00;99.90
6375;DHT22;35400;45.472;-122.822;2023-06-10T07:01:06;14.00;99.90
6375;DHT22;35400;45.472;-122.822;2023-06-10T07:03:33;14.00;99.90
6375;DHT22;35400;45.472;-122.822;2023-06-10T07:05:59;14.00;99.90
6375;DHT22;35400;45.472;-122.822;2023-06-10T07:08:27;14.00;99.90
6375;DHT22;35400;45.472;-122.822;2023-06-10T07:10:53;14.00;99.90
6375;DHT22;35400;45.472;-122.822;2023-06-10T07:13:20;14.00;99.90
6375;DHT22;35400;45.472;-122.822;2023-06-10T07:15:47;14.00;99.90
6375;DHT22;35400;45.472;-122.822;2023-06-10T07:18:15;13.90;99.90
6375;DHT22;35400;45.472;-122.822;2023-06-10T07:20:43;13.90;99.90
6375;DHT22;35400;45.472;-122.822;2023-06-10T07:23:10;13.90;99.90
6375;DHT22;35400;45.472;-122.822;2023-06-10T07:25:37;13.90;99.90
6375;DHT22;35400;45.472;-122.822;2023-06-10T07:28:04;13.90;99.90
6375;DHT22;35400;45.472;-122.822;2023-06-10T07:30:30;13.90;99.90
6375;DHT22;35400;45.472;-122.822;2023-06-10T07:32:57;13.90;99.90
6375;DHT22;35400;45.472;-122.822;2023-06-10T07:35:24;13.90;99.90
6375;DHT22;35400;45.472;-122.822;2023-06-10T07:37:51;13.80;99.90
6375;DHT22;35400;45.472;-122.822;2023-06-10T07:40:18;13.80;99.90
6375;DHT22;35400;45.472;-122.822;2023-06-10T07:42:44;13.80;99.90
6375;DHT22;35400;45.472;-122.822;2023-06-10T07:45:11;13.80;99.90
6375;DHT22;35400;45.472;-122.822;2023-06-10T07:47:39;13.80;99.90
6375;DHT22;35400;45.472;-122.822;2023-06-10T07:50:06;13.70;99.90
6375;DHT22;35400;45.472;-122.822;2023-06-10T07:52:33;13.70;99.90
6375;DHT22;35400;45.472;-122.822;2023-06-10T07:55:00;13.70;99.90
6375;DHT22;35400;45.472;-122.822;2023-06-10T07:57:27;13.70;99.90
6375;DHT22;35400;45.472;-122.822;2023-06-10T07:59:53;13.60;99.90
6375;DHT22;35400;45.472;-122.822;2023-06-10T08:02:21;13.60;99.90
6375;DHT22;35400;45.472;-122.822;2023-06-10T08:04:48;13.60;99.90
6375;DHT22;35400;45.472;-122.822;2023-06-10T08:07:14;13.60;99.90
6375;DHT22;35400;45.472;-122.822;2023-06-10T08:09:41;13.50;99.90
6375;DHT22;35400;45.472;-122.822;2023-06-10T08:12:08;13.50;99.90
6375;DHT22;35400;45.472;-122.822;2023-06-10T08:14:39;13.50;99.90
6375;DHT22;35400;45.472;-122.822;2023-06-10T08:17:06;13.50;99.90
6375;DHT22;35400;45.472;-122.822;2023-06-10T08:19:33;13.40;99.90
6375;DHT22;35400;45.472;-122.822;2023-06-10T08:22:00;13.40;99.90
6375;DHT22;35400;45.472;-122.822;2023-06-10T08:24:27;13.40;99.90
6375;DHT22;35400;45.472;-122.822;2023-06-10T08:26:54;13.30;99.90
6375;DHT22;35400;45.472;-122.822;2023-06-10T08:29:22;13.30;99.90
6375;DHT22;35400;45.472;-122.822;2023-06-10T08:31:49;13.30;99.90
6375;DHT22;35400;45.472;-122.822;2023-06-10T08:34:16;13.20;99.90
6375;DHT22;35400;45.472;-122.822;2023-06-10T08:36:43;13.20;99.90
6375;DHT22;35400;45.472;-122.822;2023-06-10T08:39:11;13.10;99.90
6375;DHT22;35400;45.472;-122.822;2023-06-10T08:41:43;13.10;99.90
6375;DHT22;35400;45.472;-122.822;2023-06-10T08:44:17;13.10;99.90
6375;DHT22;35400;45.472;-122.822;2023-06-10T08:46:47;13.00;99.90
6375;DHT22;35400;45.472;-122.822;2023-06-10T08:49:18;13.00;99.90
6375;DHT22;35400;45.472;-122.822;2023-06-10T08:51:57;13.00;99.90
6375;DHT22;35400;45.472;-122.822;2023-06-10T08:54:31;12.90;99.90
6375;DHT22;35400;45.472;-122.822;2023-06-10T08:56:59;12.90;99.90
6375;DHT22;35400;45.472;-122.822;2023-06-10T08:59:29;12.90;99.90
6375;DHT22;35400;45.472;-122.822;2023-06-10T09:01:56;12.80;99.90
6375;DHT22;35400;45.472;-122.822;2023-06-10T09:04:24;12.80;99.90
6375;DHT22;35400;45.472;-122.822;2023-06-10T09:06:52;12.80;99.90
6375;DHT22;35400;45.472;-122.822;2023-06-10T09:09:20;12.70;99.90
6375;DHT22;35400;45.472;-122.822;2023-06-10T09:11:47;12.70;99.90
6375;DHT22;35400;45.472;-122.822;2023-06-10T09:14:14;12.70;99.90
6375;DHT22;35400;45.472;-122.822;2023-06-10T09:16:42;12.70;99.90
6375;DHT22;35400;45.472;-122.822;2023-06-10T09:19:11;12.60;99.90
6375;DHT22;35400;45.472;-122.822;2023-06-10T09:21:40;12.60;99.90
6375;DHT22;35400;45.472;-122.822;2023-06-10T09:24:07;12.60;99.90
6375;DHT22;35400;45.472;-122.822;2023-06-10T09:26:34;12.60;99.90
6375;DHT22;35400;45.472;-122.822;2023-06-10T09:29:05;12.50;99.90
6375;DHT22;35400;45.472;-122.822;2023-06-10T09:31:35;12.50;99.90
6375;DHT22;35400;45.472;-122.822;2023-06-10T09:34:13;12.50;99.90
6375;DHT22;35400;45.472;-122.822;2023-06-10T09:36:40;12.50;99.90
6375;DHT22;35400;45.472;-122.822;2023-06-10T09:39:15;12.50;99.90
6375;DHT22;35400;45.472;-122.822;2023-06-10T09:41:43;12.40;99.90
6375;DHT22;35400;45.472;-122.822;2023-06-10T09:44:18;12.40;99.90
6375;DHT22;35400;45.472;-122.822;2023-06-10T09:46:48;12.40;99.90
6375;DHT22;35400;45.472;-122.822;2023-06-10T09:49:16;12.40;99.90
6375;DHT22;35400;45.472;-122.822;2023-06-10T09:51:51;12.40;99.90
6375;DHT22;35400;45.472;-122.822;2023-06-10T09:54:19;12.40;99.90
6375;DHT22;35400;45.472;-122.822;2023-06-10T09:56:51;12.40;99.90
6375;DHT22;35400;45.472;-122.822;2023-06-10T09:59:30;12.40;99.90
6375;DHT22;35400;45.472;-122.822;2023-06-10T10:02:01;12.40;99.90
6375;DHT22;35400;45.472;-122.822;2023-06-10T10:04:27;12.40;99.90
6375;DHT22;35400;45.472;-122.822;2023-06-10T10:06:55;12.40;99.90
6375;DHT22;35400;45.472;-122.822;2023-06-10T10:09:21;12.30;99.90
6375;DHT22;35400;45.472;-122.822;2023-06-10T10:11:48;12.30;99.90
6375;DHT22;35400;45.472;-122.822;2023-06-10T10:14:17;12.30;99.90
6375;DHT22;35400;45.472;-122.822;2023-06-10T10:16:45;12.30;99.90
6375;DHT22;35400;45.472;-122.822;2023-06-10T10:19:23;12.30;99.90
6375;DHT22;35400;45.472;-122.822;2023-06-10T10:21:57;12.30;99.90
6375;DHT22;35400;45.472;-122.822;2023-06-10T10:24:35;12.30;99.90
6375;DHT22;35400;45.472;-122.822;2023-06-10T10:27:07;12.30;99.90
6375;DHT22;35400;45.472;-122.822;2023-06-10T10:29:39;12.30;99.90
6375;DHT22;35400;45.472;-122.822;2023-06-10T10:32:07;12.30;99.90
6375;DHT22;35400;45.472;-122.822;2023-06-10T10:34:53;12.30;99.90
6375;DHT22;35400;45.472;-122.822;2023-06-10T10:37:24;12.30;99.90
6375;DHT22;35400;45.472;-122.822;2023-06-10T10:39:52;12.30;99.90
6375;DHT22;35400;45.472;-122.822;2023-06-10T10:42:20;12.30;99.90
6375;DHT22;35400;45.472;-122.822;2023-06-10T10:44:47;12.30;99.90
6375;DHT22;35400;45.472;-122.822;2023-06-10T10:47:16;12.20;99.90
6375;DHT22;35400;45.472;-122.822;2023-06-10T10:49:45;12.20;99.90
6375;DHT22;35400;45.472;-122.822;2023-06-10T10:52:12;12.20;99.90
6375;DHT22;35400;45.472;-122.822;2023-06-10T10:54:44;12.20;99.90
6375;DHT22;35400;45.472;-122.822;2023-06-10T10:57:15;12.20;99.90
6375;DHT22;35400;45.472;-122.822;2023-06-10T10:59:55;12.20;99.90
6375;DHT22;35400;45.472;-122.822;2023-06-10T11:02:42;12.20;99.90
6375;DHT22;35400;45.472;-122.822;2023-06-10T11:05:15;12.20;99.90
6375;DHT22;35400;45.472;-122.822;2023-06-10T11:07:53;12.20;99.90
6375;DHT22;35400;45.472;-122.822;2023-06-10T11:10:31;12.20;99.90
6375;DHT22;35400;45.472;-122.822;2023-06-10T11:12:59;12.20;99.90
6375;DHT22;35400;45.472;-122.822;2023-06-10T11:15:28;12.20;99.90
6375;DHT22;35400;45.472;-122.822;2023-06-10T11:20:56;12.20;99.90
6375;DHT22;35400;45.472;-122.822;2023-06-10T11:31:31;12.10;99.90
6375;DHT22;35400;45.472;-122.822;2023-06-10T11:34:03;12.10;99.90
6375;DHT22;35400;45.472;-122.822;2023-06-10T11:36:32;12.10;99.90
6375;DHT22;35400;45.472;-122.822;2023-06-10T11:39:03;12.10;99.90
6375;DHT22;35400;45.472;-122.822;2023-06-10T11:41:31;12.10;99.90
6375;DHT22;35400;45.472;-122.822;2023-06-10T11:44:04;12.10;99.90
6375;DHT22;35400;45.472;-122.822;2023-06-10T11:46:33;12.10;99.90
6375;DHT22;35400;45.472;-122.822;2023-06-10T11:49:00;12.10;99.90
6375;DHT22;35400;45.472;-122.822;2023-06-10T11:51:36;12.10;99.90
6375;DHT22;35400;45.472;-122.822;2023-06-10T11:54:09;12.10;99.90
6375;DHT22;35400;45.472;-122.822;2023-06-10T11:56:36;12.10;99.90
6375;DHT22;35400;45.472;-122.822;2023-06-10T11:59:05;12.10;99.90
6375;DHT22;35400;45.472;-122.822;2023-06-10T12:01:38;12.00;99.90
6375;DHT22;35400;45.472;-122.822;2023-06-10T12:04:09;12.00;99.90
6375;DHT22;35400;45.472;-122.822;2023-06-10T12:06:48;12.00;99.90
6375;DHT22;35400;45.472;-122.822;2023-06-10T12:09:20;12.00;99.90
6375;DHT22;35400;45.472;-122.822;2023-06-10T12:11:55;12.00;99.90
6375;DHT22;35400;45.472;-122.822;2023-06-10T12:14:55;12.00;99.90
6375;DHT22;35400;45.472;-122.822;2023-06-10T12:20:23;11.90;99.90
6375;DHT22;35400;45.472;-122.822;2023-06-10T12:22:51;11.90;99.90
6375;DHT22;35400;45.472;-122.822;2023-06-10T12:25:27;11.90;99.90
6375;DHT22;35400;45.472;-122.822;2023-06-10T12:27:56;11.90;99.90
6375;DHT22;35400;45.472;-122.822;2023-06-10T12:30:25;11.90;99.90
6375;DHT22;35400;45.472;-122.822;2023-06-10T12:32:53;11.80;99.90
6375;DHT22;35400;45.472;-122.822;2023-06-10T12:35:21;11.80;99.90
6375;DHT22;35400;45.472;-122.822;2023-06-10T12:38:01;11.80;99.90
6375;DHT22;35400;45.472;-122.822;2023-06-10T12:40:31;11.80;99.90
6375;DHT22;35400;45.472;-122.822;2023-06-10T12:42:59;11.80;99.90
6375;DHT22;35400;45.472;-122.822;2023-06-10T12:45:36;11.80;99.90
6375;DHT22;35400;45.472;-122.822;2023-06-10T12:48:21;11.80;99.90
6375;DHT22;35400;45.472;-122.822;2023-06-10T12:50:56;11.80;99.90
6375;DHT22;35400;45.472;-122.822;2023-06-10T12:53:24;11.80;99.90
6375;DHT22;35400;45.472;-122.822;2023-06-10T12:55:53;11.80;99.90
6375;DHT22;35400;45.472;-122.822;2023-06-10T12:58:20;11.80;99.90
6375;DHT22;35400;45.472;-122.822;2023-06-10T13:00:48;11.80;99.90
6375;DHT22;35400;45.472;-122.822;2023-06-10T13:03:15;11.80;99.90
6375;DHT22;35400;45.472;-122.822;2023-06-10T13:05:42;11.80;99.90
6375;DHT22;35400;45.472;-122.822;2023-06-10T13:08:09;11.80;99.90
6375;DHT22;35400;45.472;-122.822;2023-06-10T13:10:36;11.90;99.90
6375;DHT22;35400;45.472;-122.822;2023-06-10T13:13:04;11.90;99.90
6375;DHT22;35400;45.472;-122.822;2023-06-10T13:15:32;12.00;99.90
6375;DHT22;35400;45.472;-122.822;2023-06-10T13:18:03;12.00;99.90
6375;DHT22;35400;45.472;-122.822;2023-06-10T13:20:31;12.00;99.90
6375;DHT22;35400;45.472;-122.822;2023-06-10T13:22:58;12.10;99.90
6375;DHT22;35400;45.472;-122.822;2023-06-10T13:25:25;12.20;99.90
6375;DHT22;35400;45.472;-122.822;2023-06-10T13:27:52;12.20;99.90
6375;DHT22;35400;45.472;-122.822;2023-06-10T13:30:18;12.20;99.90
6375;DHT22;35400;45.472;-122.822;2023-06-10T13:32:45;12.20;99.90
6375;DHT22;35400;45.472;-122.822;2023-06-10T13:35:12;12.30;99.90
6375;DHT22;35400;45.472;-122.822;2023-06-10T13:37:39;12.30;99.90
6375;DHT22;35400;45.472;-122.822;2023-06-10T13:40:06;12.30;99.90
6375;DHT22;35400;45.472;-122.822;2023-06-10T13:42:34;12.30;99.90
6375;DHT22;35400;45.472;-122.822;2023-06-10T13:45:03;12.40;99.90
6375;DHT22;35400;45.472;-122.822;2023-06-10T13:47:30;12.40;99.90
6375;DHT22;35400;45.472;-122.822;2023-06-10T13:49:57;12.60;99.90
6375;DHT22;35400;45.472;-122.822;2023-06-10T13:52:24;12.70;99.90
6375;DHT22;35400;45.472;-122.822;2023-06-10T13:54:51;12.90;99.90
6375;DHT22;35400;45.472;-122.822;2023-06-10T13:57:18;13.00;99.90
6375;DHT22;35400;45.472;-122.822;2023-06-10T13:59:45;13.20;99.90
6375;DHT22;35400;45.472;-122.822;2023-06-10T14:02:11;13.50;99.90
6375;DHT22;35400;45.472;-122.822;2023-06-10T14:04:38;14.00;99.90
6375;DHT22;35400;45.472;-122.822;2023-06-10T14:07:05;14.40;99.90
6375;DHT22;35400;45.472;-122.822;2023-06-10T14:09:32;14.80;99.90
6375;DHT22;35400;45.472;-122.822;2023-06-10T14:11:59;15.10;99.90
6375;DHT22;35400;45.472;-122.822;2023-06-10T14:14:26;15.30;99.90
6375;DHT22;35400;45.472;-122.822;2023-06-10T14:16:53;15.40;99.90
6375;DHT22;35400;45.472;-122.822;2023-06-10T14:19:20;15.40;99.90
6375;DHT22;35400;45.472;-122.822;2023-06-10T14:21:46;15.30;99.90
6375;DHT22;35400;45.472;-122.822;2023-06-10T14:24:14;15.30;99.90
6375;DHT22;35400;45.472;-122.822;2023-06-10T14:26:41;15.20;99.90
6375;DHT22;35400;45.472;-122.822;2023-06-10T14:29:07;15.20;99.90
6375;DHT22;35400;45.472;-122.822;2023-06-10T14:31:35;15.20;99.90
6375;DHT22;35400;45.472;-122.822;2023-06-10T14:34:01;15.20;99.90
6375;DHT22;35400;45.472;-122.822;2023-06-10T14:36:28;15.10;99.90
6375;DHT22;35400;45.472;-122.822;2023-06-10T14:38:55;15.10;99.90
6375;DHT22;35400;45.472;-122.822;2023-06-10T14:41:23;15.00;99.90
6375;DHT22;35400;45.472;-122.822;2023-06-10T14:43:50;14.90;99.90
6375;DHT22;35400;45.472;-122.822;2023-06-10T14:46:16;14.90;99.90
6375;DHT22;35400;45.472;-122.822;2023-06-10T14:48:43;15.00;99.90
6375;DHT22;35400;45.472;-122.822;2023-06-10T14:51:10;15.00;99.90
6375;DHT22;35400;45.472;-122.822;2023-06-10T14:53:37;15.20;99.90
6375;DHT22;35400;45.472;-122.822;2023-06-10T14:56:05;15.20;99.90
6375;DHT22;35400;45.472;-122.822;2023-06-10T14:58:31;15.40;99.90
6375;DHT22;35400;45.472;-122.822;2023-06-10T15:00:58;15.70;99.90
6375;DHT22;35400;45.472;-122.822;2023-06-10T15:03:25;16.20;99.90
6375;DHT22;35400;45.472;-122.822;2023-06-10T15:05:52;16.80;99.90
6375;DHT22;35400;45.472;-122.822;2023-06-10T15:08:19;17.40;99.90
6375;DHT22;35400;45.472;-122.822;2023-06-10T15:10:46;17.90;99.90
6375;DHT22;35400;45.472;-122.822;2023-06-10T15:13:14;18.50;99.90
6375;DHT22;35400;45.472;-122.822;2023-06-10T15:15:41;19.10;99.90
6375;DHT22;35400;45.472;-122.822;2023-06-10T15:18:08;19.30;99.90
6375;DHT22;35400;45.472;-122.822;2023-06-10T15:20:35;19.30;99.90
6375;DHT22;35400;45.472;-122.822;2023-06-10T15:23:01;19.20;99.90
6375;DHT22;35400;45.472;-122.822;2023-06-10T15:25:28;19.00;99.90
6375;DHT22;35400;45.472;-122.822;2023-06-10T15:27:55;18.90;99.90
6375;DHT22;35400;45.472;-122.822;2023-06-10T15:30:22;18.70;99.90
6375;DHT22;35400;45.472;-122.822;2023-06-10T15:32:49;18.50;99.90